Time;durP1;ratioP1;P1;durP2;ratioP2;P2;SDS_P1;SDS_P2;PMS_P1;PMS_P2;Temp;Humidity;BMP_temperature;BMP_pressure;BME280_temperature;BME280_humidity;BME280_pressure;Samples;Min_cycle;Max_cycle;Signal;HPM_P1;HPM_P2
2021/04/25 00:01:35;;;;;;;0.90;0.90;;;1.00;92.50;;;;;;5058897;28;20203;-72
2021/04/25 00:04:01;;;;;;;1.75;0.90;;;0.90;92.70;;;;;;5057894;28;20727;-72
2021/04/25 00:06:27;;;;;;;1.10;0.98;;;0.90;92.90;;;;;;5077344;28;20212;-72
2021/04/25 00:08:55;;;;;;;1.48;0.90;;;0.80;93.10;;;;;;5071823;28;20197;-72
2021/04/25 00:11:21;;;;;;;1.38;1.20;;;0.70;93.50;;;;;;5063510;28;20203;-72
2021/04/25 00:13:47;;;;;;;1.05;0.90;;;0.60;93.40;;;;;;5065234;28;20197;-72
2021/04/25 00:16:14;;;;;;;1.27;1.00;;;0.50;94.40;;;;;;5073114;28;20280;-71
2021/04/25 00:18:40;;;;;;;1.95;1.00;;;0.50;94.30;;;;;;5076806;28;20204;-71
2021/04/25 00:21:06;;;;;;;1.20;1.10;;;0.60;94.00;;;;;;5073837;28;20201;-71
2021/04/25 00:23:32;;;;;;;2.22;1.00;;;0.70;94.00;;;;;;5074269;28;20202;-71
2021/04/25 00:25:58;;;;;;;4.13;1.20;;;0.60;94.20;;;;;;5073914;28;21004;-71
2021/04/25 00:28:24;;;;;;;3.80;0.90;;;0.60;94.30;;;;;;5073658;28;20197;-71
2021/04/25 00:30:50;;;;;;;1.10;1.00;;;0.40;94.60;;;;;;5075435;28;20604;-71
2021/04/25 00:33:16;;;;;;;1.63;1.00;;;0.50;94.80;;;;;;5060129;28;20594;-71
2021/04/25 00:35:42;;;;;;;1.35;0.90;;;0.40;94.50;;;;;;5076207;28;20258;-71
2021/04/25 00:38:08;;;;;;;2.65;0.90;;;0.40;94.70;;;;;;5078156;28;20204;-72
2021/04/25 00:40:33;;;;;;;3.17;0.90;;;0.50;94.70;;;;;;5074310;28;20192;-71
2021/04/25 00:42:59;;;;;;;1.13;0.80;;;0.40;95.00;;;;;;5077539;28;20204;-71
2021/04/25 00:45:25;;;;;;;1.90;0.93;;;0.30;95.20;;;;;;5065732;28;20206;-72
2021/04/25 00:47:54;;;;;;;1.50;1.13;;;0.20;95.60;;;;;;5073529;28;20193;-71
2021/04/25 00:50:26;;;;;;;1.10;0.80;;;0.30;95.50;;;;;;5075833;28;20193;-71
2021/04/25 00:52:55;;;;;;;5.72;1.05;;;0.30;95.70;;;;;;5066327;28;20673;-72
2021/04/25 00:55:25;;;;;;;1.92;0.95;;;0.20;96.00;;;;;;5064615;28;20279;-71
2021/04/25 00:57:55;;;;;;;1.45;0.77;;;0.10;96.30;;;;;;5072814;28;20283;-71
2021/04/25 01:00:22;;;;;;;1.35;1.00;;;0.10;96.20;;;;;;5063575;28;20231;-72
2021/04/25 01:02:48;;;;;;;1.65;1.35;;;0.10;96.40;;;;;;5073392;28;20195;-72
2021/04/25 01:05:15;;;;;;;1.20;0.90;;;0.00;96.60;;;;;;5074900;28;20228;-71
2021/04/25 01:07:42;;;;;;;2.88;1.00;;;0.00;96.80;;;;;;5064382;28;20200;-71
2021/04/25 01:10:09;;;;;;;3.60;1.10;;;0.00;96.90;;;;;;5076442;28;20189;-72
2021/04/25 01:12:35;;;;;;;1.30;1.17;;;0.10;96.60;;;;;;5075528;28;20196;-71
2021/04/25 01:15:01;;;;;;;1.52;1.05;;;0.20;96.50;;;;;;5075196;28;20192;-71
2021/04/25 01:17:27;;;;;;;3.47;1.08;;;0.20;96.50;;;;;;5078605;28;20242;-71
2021/04/25 01:19:53;;;;;;;1.45;0.90;;;0.20;96.60;;;;;;5053554;28;20196;-71
2021/04/25 01:22:20;;;;;;;2.20;0.98;;;0.10;96.80;;;;;;5076197;28;20654;-71
2021/04/25 01:24:45;;;;;;;1.98;0.98;;;0.20;97.00;;;;;;5064920;28;20554;-71
2021/04/25 01:27:11;;;;;;;0.77;0.70;;;0.20;96.90;;;;;;5074766;28;20209;-71
2021/04/25 01:29:37;;;;;;;3.65;0.93;;;0.20;96.80;;;;;;5072218;28;20231;-71
2021/04/25 01:32:03;;;;;;;1.10;1.00;;;0.20;97.00;;;;;;5074983;28;20203;-71
2021/04/25 01:34:29;;;;;;;1.60;0.98;;;0.10;97.20;;;;;;5069872;28;20212;-71
2021/04/25 01:36:57;;;;;;;1.77;0.90;;;0.20;97.50;;;;;;5075121;28;20200;-71
2021/04/25 01:39:27;;;;;;;2.78;1.10;;;0.20;97.30;;;;;;5063012;28;20264;-71
2021/04/25 01:41:53;;;;;;;1.13;0.90;;;0.20;97.60;;;;;;5066083;28;20254;-71
2021/04/25 01:44:19;;;;;;;0.90;0.90;;;0.20;98.00;;;;;;5074043;28;20200;-72
2021/04/25 01:46:47;;;;;;;2.00;1.10;;;0.00;97.80;;;;;;5071589;28;20221;-71
2021/04/25 01:49:14;;;;;;;0.93;0.93;;;0.00;98.30;;;;;;5078824;28;20240;-71
2021/04/25 01:51:41;;;;;;;2.55;1.15;;;0.00;98.20;;;;;;5077234;28;20796;-71
2021/04/25 01:54:07;;;;;;;1.08;0.98;;;-0.10;98.80;;;;;;5062311;28;20282;-72
2021/04/25 01:56:33;;;;;;;1.38;0.90;;;0.00;98.60;;;;;;5074257;28;20220;-71
2021/04/25 01:58:59;;;;;;;6.03;1.23;;;0.00;98.70;;;;;;5072730;28;20276;-71
2021/04/25 02:01:26;;;;;;;1.50;1.00;;;0.10;98.60;;;;;;5072470;28;20329;-71
2021/04/25 02:03:52;;;;;;;1.73;1.00;;;0.00;98.90;;;;;;5071168;28;20229;-71
2021/04/25 02:06:18;;;;;;;1.33;1.02;;;0.10;98.40;;;;;;5074487;28;20223;-71
2021/04/25 02:08:44;;;;;;;2.25;1.00;;;0.10;98.50;;;;;;5073879;28;20638;-71
2021/04/25 02:11:13;;;;;;;0.85;0.80;;;0.10;98.40;;;;;;5071814;28;20196;-71
2021/04/25 02:13:38;;;;;;;0.98;0.98;;;0.10;98.50;;;;;;5073932;28;20328;-72
2021/04/25 02:16:05;;;;;;;1.00;0.90;;;0.00;99.00;;;;;;5065063;28;20318;-71
2021/04/25 02:18:31;;;;;;;1.75;1.00;;;0.00;99.00;;;;;;5077322;28;20754;-72
2021/04/25 02:20:57;;;;;;;3.40;0.98;;;0.00;99.00;;;;;;5073263;28;20276;-71
2021/04/25 02:23:23;;;;;;;4.18;0.98;;;0.00;99.10;;;;;;5060087;28;20287;-72
2021/04/25 02:25:49;;;;;;;2.63;1.10;;;0.00;99.00;;;;;;5060845;28;20238;-72
2021/04/25 02:28:15;;;;;;;4.05;1.10;;;-0.20;99.60;;;;;;5079137;28;20246;-72
2021/04/25 02:30:42;;;;;;;1.15;0.90;;;-0.10;99.50;;;;;;5061712;28;20275;-71
2021/04/25 02:33:08;;;;;;;0.95;0.95;;;-0.10;99.50;;;;;;5071314;28;20207;-71
2021/04/25 02:35:33;;;;;;;1.88;1.00;;;0.00;99.40;;;;;;5062194;28;20205;-71
2021/04/25 02:38:00;;;;;;;1.85;1.10;;;0.10;99.00;;;;;;5073012;28;20193;-71
2021/04/25 02:40:28;;;;;;;1.05;0.95;;;0.00;99.20;;;;;;5074307;28;20822;-71
2021/04/25 02:42:55;;;;;;;1.00;0.80;;;0.00;99.50;;;;;;5074328;28;20663;-72
2021/04/25 02:45:22;;;;;;;2.42;1.10;;;0.00;99.50;;;;;;5063765;28;20651;-71
2021/04/25 02:47:50;;;;;;;2.45;0.90;;;0.00;99.30;;;;;;5076808;28;20188;-72
2021/04/25 02:50:19;;;;;;;1.25;0.85;;;0.00;99.30;;;;;;5069804;28;20185;-72
2021/04/25 02:52:45;;;;;;;1.92;0.90;;;0.10;99.40;;;;;;5074285;28;20215;-71
2021/04/25 02:55:11;;;;;;;1.20;1.00;;;0.00;99.30;;;;;;5054602;28;20327;-71
2021/04/25 02:57:39;;;;;;;1.48;0.90;;;0.00;99.40;;;;;;5068506;28;20225;-71
2021/04/25 03:00:07;;;;;;;2.90;1.13;;;-0.10;99.70;;;;;;5055258;28;20283;-71
2021/04/25 03:02:33;;;;;;;1.92;0.85;;;-0.10;99.70;;;;;;5066170;28;20237;-71
2021/04/25 03:05:02;;;;;;;1.15;0.93;;;-0.10;99.90;;;;;;5074591;28;20723;-71
2021/04/25 03:07:28;;;;;;;1.77;1.00;;;-0.10;99.90;;;;;;5079338;28;20200;-71
2021/04/25 03:09:53;;;;;;;0.95;0.90;;;-0.10;99.90;;;;;;5076133;28;20199;-71
2021/04/25 03:12:19;;;;;;;1.48;1.00;;;-0.10;99.90;;;;;;5075545;28;20722;-71
2021/04/25 03:14:45;;;;;;;1.02;0.77;;;-0.10;99.90;;;;;;5068925;28;20226;-71
2021/04/25 03:17:11;;;;;;;2.97;1.10;;;-0.10;99.90;;;;;;5068152;28;20227;-71
2021/04/25 03:19:36;;;;;;;1.63;1.20;;;-0.10;99.90;;;;;;5067034;28;20228;-71
2021/04/25 03:22:03;;;;;;;4.07;1.02;;;-0.10;99.90;;;;;;5080174;28;20728;-71
2021/04/25 03:24:28;;;;;;;2.30;1.00;;;-0.10;99.90;;;;;;5068382;28;20311;-71
2021/04/25 03:26:59;;;;;;;3.45;0.98;;;-0.10;99.90;;;;;;5077027;28;20287;-71
2021/04/25 03:29:24;;;;;;;1.00;0.98;;;-0.10;99.90;;;;;;5063979;28;20203;-71
2021/04/25 03:31:50;;;;;;;1.58;1.15;;;-0.20;99.90;;;;;;5078725;28;20192;-71
2021/04/25 03:34:16;;;;;;;1.23;0.98;;;-0.20;99.90;;;;;;5082261;28;20196;-71
2021/04/25 03:36:41;;;;;;;2.88;0.90;;;-0.20;99.90;;;;;;5066565;28;20207;-71
2021/04/25 03:39:07;;;;;;;1.52;0.88;;;-0.20;99.90;;;;;;5080680;28;20192;-71
2021/04/25 03:41:34;;;;;;;1.42;1.00;;;-0.30;99.90;;;;;;5065623;28;20776;-71
2021/04/25 03:44:00;;;;;;;2.38;0.98;;;-0.30;99.90;;;;;;5059543;28;20279;-71
2021/04/25 03:46:25;;;;;;;3.13;1.00;;;-0.30;99.90;;;;;;5075629;28;20207;-71
2021/04/25 03:48:51;;;;;;;1.13;1.02;;;-0.30;99.90;;;;;;5064267;28;20204;-71
2021/04/25 03:51:17;;;;;;;1.10;1.00;;;-0.30;99.90;;;;;;5077909;28;20528;-71
2021/04/25 03:53:43;;;;;;;1.95;0.90;;;-0.30;99.90;;;;;;5072972;28;20208;-71
2021/04/25 03:56:08;;;;;;;1.63;0.98;;;-0.30;99.90;;;;;;5067697;28;20248;-72
2021/04/25 03:58:34;;;;;;;1.38;1.00;;;-0.30;99.90;;;;;;5078157;28;20584;-71
2021/04/25 04:01:03;;;;;;;2.00;0.93;;;-0.20;99.90;;;;;;5060882;28;20193;-71
2021/04/25 04:03:28;;;;;;;1.08;0.98;;;-0.20;99.90;;;;;;5060338;28;20204;-71
2021/04/25 04:05:54;;;;;;;0.80;0.80;;;-0.20;99.90;;;;;;5076551;28;20289;-73
2021/04/25 04:08:20;;;;;;;1.95;1.00;;;0.00;99.90;;;;;;5060805;28;20662;-71
2021/04/25 04:10:46;;;;;;;2.88;0.88;;;0.00;99.90;;;;;;5080555;28;20294;-71
2021/04/25 04:13:11;;;;;;;2.65;1.10;;;0.10;99.90;;;;;;5082555;28;20693;-71
2021/04/25 04:15:40;;;;;;;2.70;1.10;;;0.20;99.90;;;;;;5079811;28;20208;-71
2021/04/25 04:18:06;;;;;;;1.17;1.02;;;0.20;99.90;;;;;;5076610;28;20239;-71
2021/04/25 04:20:32;;;;;;;1.30;1.00;;;0.20;99.90;;;;;;5068642;28;20278;-71
2021/04/25 04:23:00;;;;;;;5.60;1.10;;;0.20;99.90;;;;;;5066451;28;20215;-71
2021/04/25 04:25:26;;;;;;;1.45;1.00;;;0.30;99.90;;;;;;5068898;28;20200;-72
2021/04/25 04:27:52;;;;;;;1.00;0.90;;;0.30;99.90;;;;;;5078639;28;20200;-71
2021/04/25 04:30:18;;;;;;;3.70;1.10;;;0.40;99.90;;;;;;5080914;28;20249;-72
2021/04/25 04:32:43;;;;;;;0.85;0.82;;;0.40;99.30;;;;;;5075354;28;20816;-71
2021/04/25 04:35:13;;;;;;;1.35;1.00;;;0.50;99.70;;;;;;5076013;28;20274;-71
2021/04/25 04:37:38;;;;;;;1.77;0.70;;;0.50;99.60;;;;;;5079165;28;20367;-71
2021/04/25 04:40:05;;;;;;;0.98;0.88;;;0.50;99.30;;;;;;5083036;28;20307;-71
2021/04/25 04:42:30;;;;;;;0.88;0.80;;;0.60;99.30;;;;;;5079077;28;20200;-71
2021/04/25 04:44:56;;;;;;;2.15;1.00;;;0.70;98.70;;;;;;5079389;28;20242;-71
2021/04/25 04:47:22;;;;;;;2.03;0.93;;;0.70;98.90;;;;;;5077095;28;20203;-71
2021/04/25 04:49:47;;;;;;;1.52;0.90;;;0.80;98.40;;;;;;5077953;28;20196;-72
2021/04/25 04:52:13;;;;;;;4.15;0.80;;;0.80;98.20;;;;;;5065571;28;21071;-71
2021/04/25 04:54:39;;;;;;;0.73;0.70;;;0.90;98.20;;;;;;5084301;28;20549;-72
2021/04/25 04:57:05;;;;;;;4.18;1.02;;;0.90;97.90;;;;;;5078079;28;20192;-71
2021/04/25 04:59:33;;;;;;;1.20;1.10;;;0.90;98.00;;;;;;5076524;28;20599;-70
2021/04/25 05:01:59;;;;;;;3.45;0.90;;;1.00;97.70;;;;;;5057715;28;20196;-70
2021/04/25 05:04:25;;;;;;;0.80;0.80;;;1.00;97.90;;;;;;5073477;28;20239;-71
2021/04/25 05:06:50;;;;;;;1.10;0.88;;;1.00;97.70;;;;;;5076913;28;20900;-71
2021/04/25 05:09:16;;;;;;;1.00;0.90;;;1.10;97.30;;;;;;5066195;28;20199;-71
2021/04/25 05:11:42;;;;;;;3.50;0.73;;;1.20;97.20;;;;;;5078565;28;20204;-71
2021/04/25 05:14:07;;;;;;;0.80;0.75;;;1.30;96.90;;;;;;5064508;28;20191;-72
2021/04/25 05:16:33;;;;;;;1.77;0.90;;;1.30;96.70;;;;;;5065425;28;20210;-71
2021/04/25 05:18:59;;;;;;;0.90;0.90;;;1.40;96.20;;;;;;5079446;28;20706;-71
2021/04/25 05:21:24;;;;;;;0.98;0.90;;;1.40;96.60;;;;;;5080229;28;20275;-71
2021/04/25 05:23:50;;;;;;;4.80;0.95;;;1.50;96.30;;;;;;5075434;28;20253;-72
2021/04/25 05:26:16;;;;;;;0.70;0.70;;;1.60;95.90;;;;;;5081460;28;20208;-73
2021/04/25 05:28:41;;;;;;;2.22;1.55;;;1.60;95.20;;;;;;5081337;28;20196;-69
2021/04/25 05:31:07;;;;;;;1.00;0.90;;;1.60;95.50;;;;;;5078830;28;20677;-72
2021/04/25 05:33:33;;;;;;;0.95;0.90;;;1.70;94.50;;;;;;5081536;28;20716;-72
2021/04/25 05:36:02;;;;;;;4.70;0.90;;;1.80;94.70;;;;;;5063917;28;20283;-72
2021/04/25 05:38:27;;;;;;;1.48;1.10;;;2.00;94.40;;;;;;5065445;28;20291;-72
2021/04/25 05:40:53;;;;;;;2.83;0.95;;;2.10;94.10;;;;;;5079759;28;20674;-72
2021/04/25 05:43:19;;;;;;;2.03;1.00;;;2.20;93.20;;;;;;5067863;28;20208;-72
2021/04/25 05:45:44;;;;;;;1.15;0.82;;;2.20;93.30;;;;;;5058945;28;20228;-72
2021/04/25 05:48:10;;;;;;;1.65;0.80;;;2.30;92.40;;;;;;5079691;28;20245;-72
2021/04/25 05:50:36;;;;;;;1.10;0.90;;;2.30;92.20;;;;;;5077595;28;20226;-72
2021/04/25 05:53:02;;;;;;;0.70;0.70;;;2.30;91.80;;;;;;5061101;28;20294;-72
2021/04/25 05:55:28;;;;;;;4.65;1.00;;;2.40;91.70;;;;;;5062950;28;20203;-72
2021/04/25 05:57:54;;;;;;;1.42;1.10;;;2.40;91.60;;;;;;5078487;28;20663;-71
2021/04/25 06:00:23;;;;;;;1.10;1.00;;;2.50;91.10;;;;;;5081896;28;20618;-72
2021/04/25 06:02:49;;;;;;;1.15;0.98;;;2.60;90.50;;;;;;5066518;28;20641;-72
2021/04/25 06:05:15;;;;;;;1.52;0.90;;;2.60;90.40;;;;;;5081935;28;20224;-72
2021/04/25 06:07:41;;;;;;;2.22;1.00;;;2.70;90.20;;;;;;5081338;28;20207;-72
2021/04/25 06:10:08;;;;;;;1.13;0.80;;;2.80;90.70;;;;;;5062744;28;20662;-72
2021/04/25 06:12:34;;;;;;;0.70;0.70;;;3.00;90.00;;;;;;5065986;28;20196;-72
2021/04/25 06:15:00;;;;;;;1.50;1.00;;;3.00;89.80;;;;;;5082912;28;20254;-72
2021/04/25 06:17:26;;;;;;;1.38;0.90;;;3.10;89.40;;;;;;5082699;28;20205;-72
2021/04/25 06:19:52;;;;;;;1.40;0.88;;;3.10;88.60;;;;;;5083471;28;20673;-72
2021/04/25 06:22:18;;;;;;;1.10;0.88;;;3.00;88.80;;;;;;5067848;28;20207;-73
2021/04/25 06:24:43;;;;;;;1.67;0.90;;;3.00;88.70;;;;;;5087481;28;20199;-73
2021/04/25 06:27:09;;;;;;;1.15;0.90;;;3.10;90.00;;;;;;5083450;28;20549;-71
2021/04/25 06:29:36;;;;;;;1.05;0.95;;;3.40;89.00;;;;;;5070218;28;20207;-71
2021/04/25 06:32:05;;;;;;;1.45;1.00;;;3.40;87.80;;;;;;5086780;28;20303;-71
2021/04/25 06:34:31;;;;;;;1.42;0.90;;;3.50;86.20;;;;;;5083342;28;20200;-71
2021/04/25 06:36:57;;;;;;;2.05;1.00;;;3.50;87.30;;;;;;5069072;28;20245;-71
2021/04/25 06:39:22;;;;;;;3.97;1.00;;;3.50;86.70;;;;;;5086483;28;20208;-71
2021/04/25 06:41:48;;;;;;;1.13;1.05;;;3.70;87.20;;;;;;5086993;28;20658;-73
2021/04/25 06:44:14;;;;;;;3.03;1.10;;;3.90;85.30;;;;;;5086019;28;20398;-73
2021/04/25 06:46:39;;;;;;;1.17;1.00;;;3.90;85.60;;;;;;5090277;28;20294;-72
2021/04/25 06:49:05;;;;;;;1.13;0.88;;;4.10;85.70;;;;;;5068411;28;20224;-73
2021/04/25 06:51:31;;;;;;;1.35;1.00;;;4.20;83.60;;;;;;5087818;28;20203;-73
2021/04/25 06:53:57;;;;;;;0.77;0.77;;;4.30;82.20;;;;;;5078759;28;20474;-73
2021/04/25 06:56:23;;;;;;;3.55;1.10;;;4.40;80.50;;;;;;5052802;28;20286;-71
2021/04/25 06:58:49;;;;;;;0.95;0.90;;;4.40;80.50;;;;;;5078595;28;20203;-71
2021/04/25 07:01:16;;;;;;;1.83;0.90;;;4.30;79.70;;;;;;5076598;28;20280;-71
2021/04/25 07:03:42;;;;;;;3.22;0.98;;;4.30;80.00;;;;;;5077100;28;20670;-72
2021/04/25 07:06:08;;;;;;;2.10;1.00;;;4.30;80.00;;;;;;5077315;28;20208;-73
2021/04/25 07:08:34;;;;;;;1.10;0.90;;;4.30;79.50;;;;;;5076767;28;20215;-72
2021/04/25 07:11:00;;;;;;;0.80;0.80;;;4.50;78.10;;;;;;5079335;28;20719;-73
2021/04/25 07:13:26;;;;;;;0.90;0.90;;;4.40;77.80;;;;;;5071556;28;20265;-72
2021/04/25 07:15:52;;;;;;;1.67;1.10;;;4.60;78.80;;;;;;5076166;28;20240;-73
2021/04/25 07:18:18;;;;;;;1.30;1.20;;;4.90;79.50;;;;;;5055357;28;20208;-73
2021/04/25 07:20:43;;;;;;;3.08;1.30;;;5.10;77.40;;;;;;5078733;28;20200;-70
2021/04/25 07:23:09;;;;;;;1.77;1.00;;;5.20;77.00;;;;;;5076592;28;20220;-71
2021/04/25 07:25:35;;;;;;;2.20;1.00;;;5.30;76.00;;;;;;5060075;28;20740;-73
2021/04/25 07:28:03;;;;;;;1.27;0.98;;;5.10;77.00;;;;;;5077520;28;20199;-70
2021/04/25 07:30:28;;;;;;;2.10;1.05;;;5.20;77.00;;;;;;5076642;28;20215;-73
2021/04/25 07:32:54;;;;;;;1.38;0.98;;;5.10;75.50;;;;;;5081789;28;20635;-71
2021/04/25 07:35:20;;;;;;;2.05;1.00;;;5.10;76.20;;;;;;5079969;28;20203;-71
2021/04/25 07:37:47;;;;;;;1.35;0.90;;;5.10;75.70;;;;;;5063212;28;20582;-71
2021/04/25 07:40:14;;;;;;;1.50;0.90;;;5.20;76.20;;;;;;5080586;28;20221;-71
2021/04/25 07:42:40;;;;;;;1.33;0.95;;;5.50;77.10;;;;;;5079602;28;20684;-72
2021/04/25 07:45:14;;;;;;;2.47;1.10;;;5.70;75.50;;;;;;5078436;28;20232;-71
2021/04/25 07:47:44;;;;;;;0.73;0.70;;;5.90;74.90;;;;;;5057549;28;20245;-71
2021/04/25 07:50:13;;;;;;;1.10;1.00;;;5.90;72.80;;;;;;5072792;28;20254;-72
2021/04/25 07:52:40;;;;;;;1.45;1.00;;;5.90;73.70;;;;;;5073046;28;20367;-71
2021/04/25 07:55:07;;;;;;;2.78;1.08;;;5.90;71.60;;;;;;5060836;28;20200;-71
2021/04/25 07:57:33;;;;;;;0.88;0.82;;;6.00;74.50;;;;;;5082570;28;20221;-71
2021/04/25 07:59:59;;;;;;;0.90;0.90;;;6.00;73.20;;;;;;5061374;28;20241;-72
2021/04/25 08:02:24;;;;;;;1.15;0.90;;;5.80;73.00;;;;;;5087226;28;20192;-72
2021/04/25 08:04:50;;;;;;;0.80;0.80;;;5.90;72.50;;;;;;5072732;28;21197;-72
2021/04/25 08:07:17;;;;;;;1.02;0.93;;;6.20;72.50;;;;;;5074423;28;20220;-71
2021/04/25 08:09:45;;;;;;;1.92;1.02;;;6.50;67.20;;;;;;5056309;28;20235;-73
2021/04/25 08:12:11;;;;;;;1.00;0.90;;;6.60;68.70;;;;;;5052918;28;20192;-72
2021/04/25 08:14:37;;;;;;;1.23;1.10;;;6.60;67.00;;;;;;5070440;28;20208;-72
2021/04/25 08:17:04;;;;;;;1.17;1.02;;;6.60;67.10;;;;;;5075037;28;20208;-72
2021/04/25 08:19:30;;;;;;;1.25;1.10;;;6.80;68.40;;;;;;5074497;28;20743;-72
2021/04/25 08:21:56;;;;;;;1.42;0.90;;;7.00;68.00;;;;;;5076081;28;20199;-72
2021/04/25 08:24:21;;;;;;;2.25;0.93;;;7.10;66.80;;;;;;5056144;28;20201;-72
2021/04/25 08:26:47;;;;;;;2.30;0.85;;;7.10;64.90;;;;;;5076400;28;20277;-73
2021/04/25 08:29:14;;;;;;;1.45;1.20;;;7.30;66.00;;;;;;5056443;28;20761;-72
2021/04/25 08:31:39;;;;;;;1.33;1.00;;;7.20;64.40;;;;;;5078933;28;20195;-72
2021/04/25 08:34:05;;;;;;;7.70;1.10;;;7.30;67.30;;;;;;5076441;28;20196;-72
2021/04/25 08:36:31;;;;;;;1.40;1.02;;;7.80;66.20;;;;;;5075877;28;20224;-73
2021/04/25 08:38:57;;;;;;;1.20;1.10;;;8.40;63.60;;;;;;5072937;28;20617;-73
2021/04/25 08:41:25;;;;;;;1.52;1.00;;;8.80;64.20;;;;;;5062388;28;20228;-72
2021/04/25 08:43:52;;;;;;;1.77;0.85;;;9.00;63.40;;;;;;5075410;28;20689;-73
2021/04/25 08:46:25;;;;;;;0.93;0.90;;;8.50;60.60;;;;;;5076003;28;20208;-73
2021/04/25 08:48:51;;;;;;;1.27;0.90;;;8.00;61.60;;;;;;5072410;28;20501;-73
2021/04/25 08:51:18;;;;;;;3.53;1.05;;;8.10;62.30;;;;;;5061255;28;20192;-73
2021/04/25 08:53:45;;;;;;;0.90;0.90;;;8.30;62.40;;;;;;5071921;28;20192;-72
2021/04/25 08:56:11;;;;;;;1.10;1.00;;;8.40;60.60;;;;;;5060981;28;20235;-72
2021/04/25 08:58:37;;;;;;;0.90;0.90;;;8.20;60.50;;;;;;5050455;28;20592;-72
2021/04/25 09:01:04;;;;;;;2.95;1.17;;;8.60;59.50;;;;;;5077227;28;20192;-72
2021/04/25 09:03:30;;;;;;;2.35;0.98;;;8.70;57.50;;;;;;5055247;28;20207;-72
2021/04/25 09:06:00;;;;;;;2.60;1.38;;;8.20;57.90;;;;;;5058073;28;20224;-72
2021/04/25 09:08:51;;;;;;;2.15;1.10;;;8.00;60.60;;;;;;5054821;28;20202;-73
2021/04/25 09:11:33;;;;;;;1.55;0.95;;;8.70;62.30;;;;;;5052334;28;20574;-72
2021/04/25 09:14:21;;;;;;;4.57;1.05;;;8.70;61.10;;;;;;5039770;28;20544;-73
2021/04/25 09:16:57;;;;;;;1.00;0.98;;;8.90;62.50;;;;;;5032783;28;20205;-72
2021/04/25 09:19:25;;;;;;;1.92;1.00;;;8.90;61.50;;;;;;5032663;28;20611;-71
2021/04/25 09:21:59;;;;;;;1.67;1.10;;;9.00;61.40;;;;;;5053195;28;20380;-72
2021/04/25 09:24:26;;;;;;;0.98;0.90;;;8.70;58.30;;;;;;5039283;28;20582;-72
2021/04/25 09:26:53;;;;;;;1.17;1.02;;;8.10;59.90;;;;;;5034553;28;20220;-72
2021/04/25 09:29:27;;;;;;;1.55;0.82;;;7.70;61.30;;;;;;5055187;28;20229;-71
2021/04/25 09:31:54;;;;;;;1.10;1.00;;;7.30;61.30;;;;;;5033508;28;20193;-72
2021/04/25 09:34:29;;;;;;;1.98;1.00;;;7.10;61.20;;;;;;5056431;28;20196;-71
2021/04/25 09:36:56;;;;;;;1.10;0.93;;;6.80;62.50;;;;;;5058773;28;20196;-71
2021/04/25 09:39:23;;;;;;;1.13;0.90;;;6.80;61.10;;;;;;5057338;28;20698;-72
2021/04/25 09:41:49;;;;;;;0.88;0.88;;;6.80;60.20;;;;;;5059575;28;20197;-71
2021/04/25 09:44:35;;;;;;;1.27;1.00;;;6.60;60.00;;;;;;5062357;28;20266;-71
2021/04/25 09:47:03;;;;;;;1.02;0.90;;;6.50;62.80;;;;;;5056988;28;20204;-71
2021/04/25 09:49:46;;;;;;;2.25;1.10;;;6.50;60.40;;;;;;5039052;28;20280;-71
2021/04/25 09:52:14;;;;;;;2.25;1.00;;;6.30;62.70;;;;;;5053643;28;20197;-71
2021/04/25 09:54:41;;;;;;;0.90;0.90;;;6.20;61.60;;;;;;5054684;28;20197;-71
2021/04/25 09:57:07;;;;;;;1.38;1.00;;;6.10;58.70;;;;;;5062791;28;20299;-71
2021/04/25 09:59:50;;;;;;;1.90;1.10;;;6.20;60.80;;;;;;5061109;28;20245;-72
2021/04/25 10:02:16;;;;;;;1.25;0.90;;;6.30;59.80;;;;;;5059770;28;20204;-72
2021/04/25 10:04:41;;;;;;;1.55;1.00;;;7.20;60.80;;;;;;5041774;28;20224;-71
2021/04/25 10:07:14;;;;;;;3.00;1.30;;;8.10;57.80;;;;;;5063785;28;20742;-71
2021/04/25 10:09:39;;;;;;;1.15;1.00;;;8.40;59.10;;;;;;5042033;28;20204;-71
2021/04/25 10:12:05;;;;;;;1.00;0.90;;;9.20;57.10;;;;;;5061488;28;20567;-72
2021/04/25 10:14:33;;;;;;;1.10;1.00;;;9.20;55.70;;;;;;5059992;28;20193;-71
2021/04/25 10:17:01;;;;;;;3.47;0.90;;;8.80;56.10;;;;;;5058383;28;20600;-72
2021/04/25 10:19:27;;;;;;;0.85;0.85;;;8.20;56.90;;;;;;5042069;28;20201;-71
2021/04/25 10:21:53;;;;;;;2.15;1.08;;;7.60;57.80;;;;;;5062836;28;20248;-71
2021/04/25 10:24:21;;;;;;;2.50;0.90;;;8.10;57.40;;;;;;5045665;28;20691;-72
2021/04/25 10:27:12;;;;;;;1.10;1.00;;;8.20;56.90;;;;;;5057610;28;20299;-71
2021/04/25 10:29:44;;;;;;;2.10;1.08;;;8.60;56.30;;;;;;5056999;28;20197;-72
2021/04/25 10:32:16;;;;;;;2.22;1.27;;;8.60;56.90;;;;;;5055717;28;20304;-72
2021/04/25 10:34:42;;;;;;;3.10;1.10;;;8.40;56.60;;;;;;5044566;28;20705;-72
2021/04/25 10:37:09;;;;;;;0.80;0.80;;;8.20;56.60;;;;;;5066038;28;20192;-71
2021/04/25 10:39:47;;;;;;;0.80;0.80;;;7.70;56.70;;;;;;5047343;28;20205;-72
2021/04/25 10:42:25;;;;;;;0.80;0.80;;;7.70;59.00;;;;;;5048717;28;20205;-72
2021/04/25 10:45:03;;;;;;;1.75;0.98;;;7.40;58.80;;;;;;5064432;28;20308;-71
2021/04/25 10:47:34;;;;;;;1.35;0.90;;;7.30;58.80;;;;;;5061946;28;20524;-71
2021/04/25 10:50:24;;;;;;;1.83;1.10;;;7.20;59.20;;;;;;5063203;28;20256;-71
2021/04/25 10:52:51;;;;;;;1.60;1.08;;;7.00;59.30;;;;;;5050860;28;20204;-72
2021/04/25 10:55:20;;;;;;;0.95;0.95;;;6.90;59.40;;;;;;5062213;28;20196;-72
2021/04/25 10:58:10;;;;;;;0.80;0.80;;;6.80;60.40;;;;;;5066764;28;20203;-72
2021/04/25 11:03:06;;;;;;;1.20;1.00;;;7.80;57.20;;;;;;5064375;28;20197;-73
2021/04/25 11:05:35;;;;;;;3.15;0.90;;;8.30;57.50;;;;;;5044050;28;20252;-73
2021/04/25 11:08:05;;;;;;;1.00;0.90;;;8.40;55.70;;;;;;5049032;28;20733;-73
2021/04/25 11:10:50;;;;;;;1.23;0.98;;;8.30;56.30;;;;;;5065508;28;20195;-73
2021/04/25 11:13:34;;;;;;;2.10;1.00;;;8.30;55.40;;;;;;5063701;28;20428;-70
2021/04/25 11:16:06;;;;;;;0.85;0.85;;;8.10;55.90;;;;;;5063149;28;20493;-73
2021/04/25 11:19:03;;;;;;;1.13;1.00;;;7.90;56.60;;;;;;5042519;28;20887;-73
2021/04/25 11:21:29;;;;;;;0.93;0.82;;;7.50;57.20;;;;;;5063370;28;20203;-73
2021/04/25 11:24:01;;;;;;;2.45;1.00;;;7.40;56.90;;;;;;5046856;28;20197;-73
2021/04/25 11:26:39;;;;;;;0.90;0.90;;;8.40;57.60;;;;;;5061376;28;20200;-73
2021/04/25 11:29:23;;;;;;;1.50;0.80;;;9.40;57.20;;;;;;5042387;28;21008;-71
2021/04/25 11:31:56;;;;;;;0.80;0.80;;;10.20;53.70;;;;;;5061870;28;20242;-73
2021/04/25 11:34:25;;;;;;;1.77;1.20;;;9.90;53.60;;;;;;5043883;28;20582;-73
2021/04/25 11:37:17;;;;;;;1.05;0.80;;;9.20;55.10;;;;;;5063334;28;20197;-73
2021/04/25 11:39:44;;;;;;;2.03;1.40;;;8.70;56.00;;;;;;5052934;28;20220;-73
2021/04/25 11:42:24;;;;;;;1.65;1.27;;;8.50;56.90;;;;;;5066276;28;20204;-73
2021/04/25 11:44:50;;;;;;;1.23;1.08;;;8.60;57.00;;;;;;5061693;28;20189;-73
2021/04/25 11:47:21;;;;;;;2.50;1.10;;;8.40;56.90;;;;;;5044741;28;20266;-73
2021/04/25 11:49:52;;;;;;;0.93;0.93;;;8.20;57.90;;;;;;5041372;28;20201;-73
2021/04/25 11:52:30;;;;;;;1.17;1.00;;;8.00;58.30;;;;;;5041789;28;20209;-73
2021/04/25 11:55:01;;;;;;;2.15;0.93;;;7.80;59.30;;;;;;5044533;28;20188;-73
2021/04/25 11:57:29;;;;;;;1.15;0.80;;;8.10;60.20;;;;;;5063211;28;20806;-73
2021/04/25 12:00:16;;;;;;;0.80;0.80;;;8.60;59.20;;;;;;5062750;28;20207;-73
2021/04/25 12:02:42;;;;;;;1.83;0.90;;;8.70;58.60;;;;;;5063610;28;20224;-73
2021/04/25 12:05:13;;;;;;;1.02;0.95;;;8.40;56.30;;;;;;5050056;28;20323;-74
2021/04/25 12:07:49;;;;;;;2.25;0.95;;;8.50;56.60;;;;;;5083540;28;21290;-73
2021/04/25 12:10:18;;;;;;;0.80;0.80;;;8.40;54.90;;;;;;5061131;28;20735;-73
2021/04/25 12:13:14;;;;;;;1.15;0.88;;;8.40;57.10;;;;;;5083995;28;20188;-73
2021/04/25 12:15:41;;;;;;;1.98;0.93;;;8.50;56.20;;;;;;5030550;28;20298;-73
2021/04/25 12:18:08;;;;;;;2.30;0.90;;;8.30;56.50;;;;;;5060214;28;20197;-73
2021/04/25 12:20:39;;;;;;;1.05;0.95;;;8.40;57.30;;;;;;5077908;28;20219;-71
2021/04/25 12:23:05;;;;;;;1.10;1.00;;;8.50;56.50;;;;;;5053674;28;20549;-71
2021/04/25 12:25:31;;;;;;;1.00;0.90;;;8.40;56.40;;;;;;5055175;28;20193;-71
2021/04/25 12:27:58;;;;;;;1.10;0.90;;;8.10;55.50;;;;;;5086202;28;20661;-73
2021/04/25 12:30:29;;;;;;;1.10;1.00;;;7.70;57.50;;;;;;5064086;28;20188;-71
2021/04/25 12:33:06;;;;;;;1.95;0.93;;;8.60;59.90;;;;;;5061285;28;20192;-71
2021/04/25 12:35:35;;;;;;;0.95;0.85;;;9.40;56.60;;;;;;5080410;28;20669;-71
2021/04/25 12:38:17;;;;;;;1.00;0.90;;;9.50;54.60;;;;;;5082905;28;20680;-71
2021/04/25 12:40:42;;;;;;;1.67;0.80;;;9.50;54.60;;;;;;5084689;28;20227;-71
2021/04/25 12:43:18;;;;;;;1.42;0.80;;;9.70;54.20;;;;;;5087164;28;20219;-71
2021/04/25 12:45:45;;;;;;;2.08;1.02;;;10.20;55.00;;;;;;5055285;28;20607;-72
2021/04/25 12:48:23;;;;;;;1.83;0.98;;;10.70;53.20;;;;;;5085555;28;20215;-71
2021/04/25 12:51:20;;;;;;;1.98;0.90;;;10.30;52.60;;;;;;5073021;28;20384;-71
2021/04/25 12:53:58;;;;;;;1.30;0.95;;;10.60;53.10;;;;;;5077895;28;20196;-70
2021/04/25 12:56:36;;;;;;;0.70;0.70;;;11.30;54.00;;;;;;5058043;28;20196;-71
2021/04/25 12:59:09;;;;;;;0.82;0.82;;;11.10;52.50;;;;;;5063133;28;20192;-70
2021/04/25 13:01:41;;;;;;;1.80;0.70;;;10.50;51.30;;;;;;5083169;28;20642;-71
2021/04/25 13:04:30;;;;;;;1.35;0.90;;;9.60;52.60;;;;;;5066759;28;20231;-71